Time;durP1;ratioP1;P1;durP2;ratioP2;P2;SDS_P1;SDS_P2;PMS_P1;PMS_P2;Temp;Humidity;BMP_temperature;BMP_pressure;BME280_temperature;BME280_humidity;BME280_pressure;Samples;Min_cycle;Max_cycle;Signal;HPM_P1;HPM_P2
2023/06/24 00:02:01;;;;;;;11.30;6.40;;;;;;;;;;106930;1272;22524;-91
2023/06/24 00:04:31;;;;;;;10.70;6.80;;;;;;;;;;106956;1275;22642;-88
2023/06/24 00:07:11;;;;;;;10.60;6.60;;;;;;;;;;106887;1275;22514;-92
2023/06/24 00:09:54;;;;;;;8.70;4.90;;;;;;;;;;107012;1264;25324;-88
2023/06/24 00:12:32;;;;;;;7.00;3.40;;;;;;;;;;107058;1256;22523;-87
2023/06/24 00:14:59;;;;;;;6.20;2.40;;;;;;;;;;106975;1274;24187;-86
2023/06/24 00:17:30;;;;;;;4.70;1.80;;;;;;;;;;107109;1274;24371;-90
2023/06/24 00:20:08;;;;;;;4.60;2.10;;;;;;;;;;107202;1266;25322;-90
2023/06/24 00:22:48;;;;;;;6.10;2.50;;;;;;;;;;106915;1275;22529;-86
2023/06/24 00:25:15;;;;;;;4.90;2.30;;;;;;;;;;107030;1275;24244;-89
2023/06/24 00:27:45;;;;;;;7.10;2.50;;;;;;;;;;106935;1275;24187;-90
2023/06/24 00:30:16;;;;;;;7.30;2.80;;;;;;;;;;107125;1254;22529;-90
2023/06/24 00:32:48;;;;;;;6.50;2.60;;;;;;;;;;107022;1274;25539;-87
2023/06/24 00:35:16;;;;;;;6.40;2.70;;;;;;;;;;107167;1274;25326;-90
2023/06/24 00:37:58;;;;;;;6.10;2.60;;;;;;;;;;107223;1274;22523;-90
2023/06/24 00:40:35;;;;;;;6.30;2.50;;;;;;;;;;107145;1275;22556;-91
2023/06/24 00:43:08;;;;;;;6.20;2.90;;;;;;;;;;107123;1275;25223;-88
2023/06/24 00:45:42;;;;;;;6.00;2.80;;;;;;;;;;107444;1275;22953;-91
2023/06/24 00:48:29;;;;;;;6.90;3.00;;;;;;;;;;107965;1275;25363;-89
2023/06/24 00:51:23;;;;;;;5.10;2.50;;;;;;;;;;107819;1264;25459;-88
2023/06/24 00:53:55;;;;;;;9.00;2.60;;;;;;;;;;107111;1274;22522;-91
2023/06/24 00:56:25;;;;;;;7.00;3.60;;;;;;;;;;107091;1275;24335;-85
2023/06/24 00:58:52;;;;;;;6.90;3.60;;;;;;;;;;107125;1274;25224;-89
2023/06/24 01:01:34;;;;;;;7.10;3.60;;;;;;;;;;107187;1257;24278;-88
2023/06/24 01:04:02;;;;;;;7.70;3.40;;;;;;;;;;107115;1275;22566;-87
2023/06/24 01:06:30;;;;;;;7.60;3.40;;;;;;;;;;107006;1275;22677;-90
2023/06/24 01:09:11;;;;;;;;;;;;;;;;;;;;;
2023/06/24 01:12:10;;;;;;;6.90;3.40;;;;;;;;;;107376;1256;23915;-86
2023/06/24 01:15:45;;;;;;;7.40;3.90;;;;;;;;;;108607;1274;22493;-91
2023/06/24 01:19:02;;;;;;;7.70;3.50;;;;;;;;;;107559;1274;22521;-93
2023/06/24 01:21:54;;;;;;;8.40;3.50;;;;;;;;;;107189;1257;22517;-88
2023/06/24 01:24:46;;;;;;;7.40;3.40;;;;;;;;;;107171;1275;22520;-89
2023/06/24 01:27:45;;;;;;;7.10;3.50;;;;;;;;;;107132;1276;24263;-92
2023/06/24 01:30:35;;;;;;;5.90;3.10;;;;;;;;;;107051;1276;22792;-88
2023/06/24 01:33:27;;;;;;;6.10;2.60;;;;;;;;;;107511;1267;22524;-93
2023/06/24 01:35:54;;;;;;;6.90;3.20;;;;;;;;;;107145;1275;23007;-88
2023/06/24 01:38:27;;;;;;;8.40;3.30;;;;;;;;;;107486;1275;22634;-90
2023/06/24 01:40:59;;;;;;;7.90;3.20;;;;;;;;;;107655;1275;25448;-90
2023/06/24 01:43:45;;;;;;;7.00;3.40;;;;;;;;;;109219;1260;22548;-91
2023/06/24 01:46:40;;;;;;;7.10;3.10;;;;;;;;;;107325;1276;23915;-88
2023/06/24 01:49:44;;;;;;;;;;;;;;;;;;;;;
2023/06/24 01:52:49;;;;;;;6.90;2.70;;;;;;;;;;107912;1265;22556;-90
2023/06/24 01:55:37;;;;;;;6.10;2.60;;;;;;;;;;108039;1275;22540;-89
2023/06/24 01:58:15;;;;;;;5.50;2.60;;;;;;;;;;107714;1275;24228;-89
2023/06/24 02:00:48;;;;;;;5.50;1.90;;;;;;;;;;108363;1275;22584;-91
2023/06/24 02:03:21;;;;;;;4.00;1.70;;;;;;;;;;109050;1258;22531;-90
2023/06/24 02:05:55;;;;;;;3.90;1.40;;;;;;;;;;107787;1275;25462;-91
2023/06/24 02:08:44;;;;;;;3.90;1.30;;;;;;;;;;108400;1276;22105;-91
2023/06/24 02:11:40;;;;;;;4.20;1.40;;;;;;;;;;108311;1276;22667;-92
2023/06/24 02:14:07;;;;;;;3.50;1.50;;;;;;;;;;108764;1257;24232;-90
2023/06/24 02:16:44;;;;;;;4.70;1.20;;;;;;;;;;108899;1273;22688;-93
2023/06/24 02:19:11;;;;;;;5.30;2.20;;;;;;;;;;108953;1273;22579;-90
2023/06/24 02:21:43;;;;;;;5.10;2.20;;;;;;;;;;110415;1275;22382;-89
2023/06/24 02:24:10;;;;;;;6.50;2.60;;;;;;;;;;110568;1260;22083;-91
2023/06/24 02:26:40;;;;;;;6.50;2.50;;;;;;;;;;110679;1276;22104;-91
2023/06/24 02:29:09;;;;;;;5.50;2.60;;;;;;;;;;110670;1272;22108;-90
2023/06/24 02:31:36;;;;;;;4.80;2.30;;;;;;;;;;110452;1276;22459;-90
2023/06/24 02:34:26;;;;;;;7.10;2.80;;;;;;;;;;110635;1257;22371;-93
2023/06/24 02:36:55;;;;;;;6.60;2.90;;;;;;;;;;110700;1275;22847;-91
2023/06/24 02:39:29;;;;;;;7.60;3.10;;;;;;;;;;110451;1275;22114;-92
2023/06/24 02:41:59;;;;;;;6.40;3.00;;;;;;;;;;110738;1275;23250;-90
2023/06/24 02:44:26;;;;;;;7.90;3.40;;;;;;;;;;110650;1257;22188;-90
2023/06/24 02:47:19;;;;;;;9.30;3.30;;;;;;;;;;110618;1276;22103;-93
2023/06/24 02:49:51;;;;;;;8.70;3.30;;;;;;;;;;109779;1289;22096;-93
2023/06/24 02:52:36;;;;;;;6.60;2.70;;;;;;;;;;109438;1293;22133;-90
2023/06/24 02:55:09;;;;;;;6.40;2.90;;;;;;;;;;109716;1280;22131;-90
2023/06/24 02:57:50;;;;;;;9.20;5.70;;;;;;;;;;109361;1294;22105;-93
2023/06/24 03:00:38;;;;;;;7.30;3.10;;;;;;;;;;109538;1294;22145;-91
2023/06/24 03:03:31;;;;;;;7.30;3.10;;;;;;;;;;109519;1270;22153;-89
2023/06/24 03:06:02;;;;;;;8.60;3.10;;;;;;;;;;109432;1293;22137;-90
2023/06/24 03:08:30;;;;;;;7.70;3.60;;;;;;;;;;109111;1294;22150;-90
2023/06/24 03:10:58;;;;;;;8.10;3.50;;;;;;;;;;109250;1293;22183;-90
2023/06/24 03:16:40;;;;;;;7.30;3.10;;;;;;;;;;104876;1295;545701;-89
2023/06/24 03:19:20;;;;;;;7.20;3.10;;;;;;;;;;106901;1288;22571;-89
2023/06/24 03:22:20;;;;;;;;;;;;;;;;;;;;;
2023/06/24 03:25:19;;;;;;;9.20;3.70;;;;;;;;;;109195;1279;22537;-92
2023/06/24 03:28:22;;;;;;;6.80;3.50;;;;;;;;;;108586;1259;23751;-92
2023/06/24 03:31:00;;;;;;;10.00;3.90;;;;;;;;;;104611;1276;5201659;-90
2023/06/24 03:33:48;;;;;;;;;;;;;;;;;;;;;
2023/06/24 03:36:56;;;;;;;;;;;;;;;;;;;;;
2023/06/24 03:39:52;;;;;;;7.90;3.90;;;;;;;;;;108816;1273;22595;-89
2023/06/24 03:42:47;;;;;;;9.30;3.90;;;;;;;;;;108243;1276;22465;-90
2023/06/24 03:45:33;;;;;;;7.90;3.80;;;;;;;;;;108567;1277;23755;-90
2023/06/24 03:48:33;;;;;;;;;;;;;;;;;;;;;
2023/06/24 03:51:33;;;;;;;7.80;3.40;;;;;;;;;;108197;1278;22534;-92
2023/06/24 03:54:20;;;;;;;7.00;3.00;;;;;;;;;;107704;1278;22550;-92
2023/06/24 03:57:11;;;;;;;;;;;;;;;;;;;;;
2023/06/24 04:00:05;;;;;;;;;;;;;;;;;;;;;
2023/06/24 04:02:48;;;;;;;6.70;2.80;;;;;;;;;;109519;1278;22668;-94
2023/06/24 04:05:56;;;;;;;7.30;3.00;;;;;;;;;;109218;1281;22552;-92
2023/06/24 04:08:29;;;;;;;7.50;2.90;;;;;;;;;;109789;1257;22515;-93
2023/06/24 04:11:27;;;;;;;;;;;;;;;;;;;;;
2023/06/24 04:14:30;;;;;;;;;;;;;;;;;;;;;
2023/06/24 04:17:16;;;;;;;7.50;2.80;;;;;;;;;;109795;1255;22547;-90
2023/06/24 04:23:15;;;;;;;;;;;;;;;;;;;;;
2023/06/24 04:28:35;;;;;;;6.40;2.90;;;;;;;;;;106867;1293;548879;-86
2023/06/24 04:37:24;;;;;;;7.80;2.90;;;;;;;;;;109311;1268;22516;-90
2023/06/24 04:44:53;;;;;;;8.80;3.30;;;;;;;;;;107195;1289;545137;-92
2023/06/24 04:50:27;;;;;;;9.10;3.10;;;;;;;;;;109547;1267;22306;-90
2023/06/24 04:53:46;;;;;;;7.30;3.20;;;;;;;;;;109031;1288;23838;-88
2023/06/24 05:00:40;;;;;;;8.00;3.30;;;;;;;;;;105859;1264;22115;-92
2023/06/24 05:03:08;;;;;;;6.90;3.20;;;;;;;;;;110006;1288;22190;-92
2023/06/24 05:05:47;;;;;;;7.20;3.20;;;;;;;;;;109927;1272;22216;-92
2023/06/24 05:09:51;;;;;;;7.50;3.40;;;;;;;;;;106767;1292;544935;-90
2023/06/24 05:13:18;;;;;;;8.10;4.00;;;;;;;;;;108933;1291;22620;-92
2023/06/24 05:15:47;;;;;;;10.70;3.90;;;;;;;;;;108874;1291;22568;-91
2023/06/24 05:22:06;;;;;;;7.80;3.70;;;;;;;;;;108642;1294;22564;-94
2023/06/24 05:25:23;;;;;;;6.90;3.10;;;;;;;;;;104773;1295;24366;-89
2023/06/24 05:28:21;;;;;;;11.20;4.00;;;;;;;;;;108655;1295;22677;-91
2023/06/24 05:30:59;;;;;;;8.40;3.20;;;;;;;;;;108295;1276;22588;-92
2023/06/24 05:33:47;;;;;;;7.00;3.50;;;;;;;;;;107934;1295;22683;-92
2023/06/24 05:36:30;;;;;;;9.80;3.80;;;;;;;;;;108897;1289;23810;-92
2023/06/24 05:39:17;;;;;;;9.20;4.20;;;;;;;;;;108531;1271;22540;-90
2023/06/24 05:41:59;;;;;;;10.70;4.20;;;;;;;;;;108339;1288;22568;-94
2023/06/24 05:44:51;;;;;;;8.50;3.80;;;;;;;;;;108320;1288;22228;-92
2023/06/24 05:47:41;;;;;;;7.50;3.70;;;;;;;;;;108962;1283;23796;-93
2023/06/24 05:50:34;;;;;;;8.50;3.90;;;;;;;;;;109602;1262;22525;-92
2023/06/24 05:53:30;;;;;;;9.40;4.10;;;;;;;;;;109416;1284;22506;-92
2023/06/24 05:56:03;;;;;;;10.30;4.20;;;;;;;;;;109122;1284;23801;-93
2023/06/24 05:58:45;;;;;;;9.40;4.90;;;;;;;;;;108084;1284;22652;-90
2023/06/24 06:01:50;;;;;;;10.00;5.40;;;;;;;;;;109055;1267;22544;-92
2023/06/24 06:04:30;;;;;;;11.10;5.70;;;;;;;;;;107918;1283;22553;-91
2023/06/24 06:07:11;;;;;;;10.80;6.50;;;;;;;;;;107659;1282;22693;-91
2023/06/24 06:10:29;;;;;;;9.90;6.20;;;;;;;;;;108698;1264;22506;-93
2023/06/24 06:13:04;;;;;;;10.00;5.30;;;;;;;;;;108447;1284;22734;-92
2023/06/24 06:16:01;;;;;;;12.50;5.70;;;;;;;;;;108923;1284;21988;-93
2023/06/24 06:19:08;;;;;;;;;;;;;;;;;;;;;
2023/06/24 06:21:37;;;;;;;9.20;4.70;;;;;;;;;;108183;1265;24768;-93
2023/06/24 06:24:12;;;;;;;11.20;5.20;;;;;;;;;;108028;1281;25965;-88
2023/06/24 06:27:24;;;;;;;11.50;4.90;;;;;;;;;;107615;1281;22668;-91
2023/06/24 06:30:16;;;;;;;9.60;4.90;;;;;;;;;;107325;1259;22532;-89
2023/06/24 06:33:48;;;;;;;9.10;4.50;;;;;;;;;;106397;1281;25230;-90
2023/06/24 06:36:13;;;;;;;10.50;5.20;;;;;;;;;;106159;1288;22767;-89
2023/06/24 06:39:01;;;;;;;9.70;4.60;;;;;;;;;;106106;1288;25474;-90
2023/06/24 06:41:33;;;;;;;8.40;4.60;;;;;;;;;;106238;1269;25256;-89
2023/06/24 06:44:21;;;;;;;8.70;4.90;;;;;;;;;;106025;1287;24261;-88
2023/06/24 06:47:24;;;;;;;;;;;;;;;;;;;;;
2023/06/24 06:50:02;;;;;;;9.00;4.80;;;;;;;;;;106014;1288;22758;-90
2023/06/24 06:53:35;;;;;;;10.30;4.90;;;;;;;;;;105817;1284;24761;-90
2023/06/24 06:55:54;;;;;;;10.60;4.50;;;;;;;;;;105938;1289;25315;-89
2023/06/24 06:58:40;;;;;;;;;;;;;;;;;;;;;
2023/06/24 07:01:31;;;;;;;11.30;5.20;;;;;;;;;;106084;1271;24260;-88
2023/06/24 07:04:14;;;;;;;10.80;5.00;;;;;;;;;;105961;1282;25409;-92
2023/06/24 07:06:53;;;;;;;10.10;4.90;;;;;;;;;;106074;1280;22549;-92
2023/06/24 07:09:35;;;;;;;10.80;5.50;;;;;;;;;;105943;1283;22630;-89
2023/06/24 07:12:31;;;;;;;11.00;5.30;;;;;;;;;;106167;1283;22582;-88
2023/06/24 07:15:21;;;;;;;10.40;5.30;;;;;;;;;;106481;1281;23334;-89
2023/06/24 07:18:12;;;;;;;9.20;4.60;;;;;;;;;;106400;1275;22530;-87
2023/06/24 07:21:01;;;;;;;10.20;5.50;;;;;;;;;;106514;1275;23892;-90
2023/06/24 07:23:34;;;;;;;11.50;5.80;;;;;;;;;;106528;1264;22533;-88
2023/06/24 07:26:19;;;;;;;11.10;5.40;;;;;;;;;;106538;1278;22532;-90
2023/06/24 07:29:18;;;;;;;;;;;;;;;;;;;;;
2023/06/24 07:32:21;;;;;;;;;;;;;;;;;;;;;
2023/06/24 07:35:21;;;;;;;;;;;;;;;;;;;;;
2023/06/24 07:38:03;;;;;;;13.60;6.80;;;;;;;;;;106436;1275;22533;-91
2023/06/24 07:48:12;;;;;;;;;;;;;;;;;;;;;
2023/06/24 07:50:52;;;;;;;13.80;6.90;;;;;;;;;;106218;1284;25286;-93
2023/06/24 07:53:51;;;;;;;12.30;7.00;;;;;;;;;;106197;1282;24205;-89
2023/06/24 07:56:23;;;;;;;12.30;7.00;;;;;;;;;;106337;1282;22534;-88
2023/06/24 07:59:59;;;;;;;14.40;7.00;;;;;;;;;;106004;1275;24353;-89
2023/06/24 08:02:26;;;;;;;14.20;7.30;;;;;;;;;;102517;1278;5164576;-89
2023/06/24 08:04:53;;;;;;;13.60;7.00;;;;;;;;;;107135;1266;23335;-87
2023/06/24 08:07:49;;;;;;;13.70;8.00;;;;;;;;;;107260;1266;22534;-87
2023/06/24 08:10:31;;;;;;;13.80;8.30;;;;;;;;;;107019;1267;25228;-86
2023/06/24 08:13:19;;;;;;;15.50;8.70;;;;;;;;;;107002;1274;24186;-91
2023/06/24 08:16:24;;;;;;;14.20;8.90;;;;;;;;;;107091;1274;22562;-91
2023/06/24 08:19:23;;;;;;;12.30;7.70;;;;;;;;;;107170;1260;25265;-87
2023/06/24 08:22:09;;;;;;;13.20;8.50;;;;;;;;;;107195;1272;22520;-87
2023/06/24 08:24:51;;;;;;;14.30;8.10;;;;;;;;;;107174;1266;24316;-89
2023/06/24 08:27:36;;;;;;;13.90;8.40;;;;;;;;;;106976;1272;25490;-85
2023/06/24 08:30:12;;;;;;;15.30;8.70;;;;;;;;;;107081;1256;24242;-90
2023/06/24 08:33:06;;;;;;;14.70;9.30;;;;;;;;;;106987;1274;22538;-90
2023/06/24 08:35:57;;;;;;;14.80;9.40;;;;;;;;;;107573;1274;25338;-87
2023/06/24 08:38:27;;;;;;;15.00;8.80;;;;;;;;;;107340;1274;26503;-86
2023/06/24 08:41:09;;;;;;;;;;;;;;;;;;;;;
2023/06/24 08:44:16;;;;;;;;;;;;;;;;;;;;;
2023/06/24 08:46:48;;;;;;;14.20;8.20;;;;;;;;;;107157;1275;22523;-86
2023/06/24 08:49:53;;;;;;;15.20;8.40;;;;;;;;;;107166;1253;22467;-84
2023/06/24 08:52:51;;;;;;;12.90;8.50;;;;;;;;;;107166;1275;22522;-88
2023/06/24 08:55:52;;;;;;;13.70;8.40;;;;;;;;;;107099;1275;24312;-84
2023/06/24 08:58:21;;;;;;;14.50;8.70;;;;;;;;;;107001;1276;23350;-88
2023/06/24 09:00:58;;;;;;;15.50;8.70;;;;;;;;;;107071;1258;22553;-88
2023/06/24 09:03:27;;;;;;;18.00;8.90;;;;;;;;;;107063;1276;25353;-88
2023/06/24 09:05:59;;;;;;;14.20;8.60;;;;;;;;;;106989;1276;24523;-84
2023/06/24 09:08:47;;;;;;;16.90;9.50;;;;;;;;;;106973;1276;22520;-84
2023/06/24 09:11:34;;;;;;;14.40;7.90;;;;;;;;;;107077;1259;25187;-84
2023/06/24 09:14:31;;;;;;;14.40;8.20;;;;;;;;;;107034;1276;22548;-90
2023/06/24 09:17:01;;;;;;;16.00;9.40;;;;;;;;;;107063;1276;24288;-87
2023/06/24 09:19:37;;;;;;;17.20;7.60;;;;;;;;;;107104;1253;22544;-86
2023/06/24 09:22:27;;;;;;;15.70;8.00;;;;;;;;;;107074;1260;24205;-86
2023/06/24 09:26:22;;;;;;;16.40;8.20;;;;;;;;;;107141;1275;22532;-83
2023/06/24 09:28:49;;;;;;;16.50;8.30;;;;;;;;;;106664;1282;22537;-83
2023/06/24 09:31:29;;;;;;;;;;;;;;;;;;;;;
2023/06/24 09:34:14;;;;;;;;;;;;;;;;;;;;;
2023/06/24 09:36:48;;;;;;;14.00;8.00;;;;;;;;;;106604;1281;22775;-90
2023/06/24 09:39:17;;;;;;;12.80;7.70;;;;;;;;;;106655;1282;24201;-83
2023/06/24 09:42:06;;;;;;;10.60;6.90;;;;;;;;;;106514;1265;22573;-87
2023/06/24 09:45:27;;;;;;;12.80;7.30;;;;;;;;;;106711;1266;24414;-85
2023/06/24 09:47:53;;;;;;;12.50;6.90;;;;;;;;;;106602;1281;22568;-90
2023/06/24 09:50:35;;;;;;;;;;;;;;;;;;;;;
2023/06/24 09:53:05;;;;;;;10.40;4.60;;;;;;;;;;106619;1263;23543;-83
2023/06/24 09:55:32;;;;;;;14.00;6.00;;;;;;;;;;106701;1281;22534;-85
2023/06/24 09:58:06;;;;;;;9.60;5.60;;;;;;;;;;106649;1282;22707;-90
2023/06/24 10:00:48;;;;;;;9.80;5.50;;;;;;;;;;106693;1282;24241;-84
2023/06/24 10:03:24;;;;;;;9.70;6.20;;;;;;;;;;106695;1262;24233;-83
2023/06/24 10:05:54;;;;;;;11.20;5.80;;;;;;;;;;106900;1275;22495;-84
2023/06/24 10:08:21;;;;;;;12.20;5.60;;;;;;;;;;106983;1276;25341;-87
2023/06/24 10:11:05;;;;;;;9.30;4.90;;;;;;;;;;106981;1275;24202;-87
2023/06/24 10:13:31;;;;;;;10.80;5.10;;;;;;;;;;107105;1268;22524;-90
2023/06/24 10:15:58;;;;;;;8.90;5.20;;;;;;;;;;107201;1276;22545;-86
2023/06/24 10:18:37;;;;;;;9.40;5.20;;;;;;;;;;107087;1276;22533;-86
2023/06/24 10:21:09;;;;;;;8.80;4.80;;;;;;;;;;107131;1276;22543;-84
2023/06/24 10:23:56;;;;;;;9.40;5.50;;;;;;;;;;107120;1267;25400;-84
2023/06/24 10:27:33;;;;;;;9.70;4.90;;;;;;;;;;106847;1276;22601;-84
2023/06/24 10:30:47;;;;;;;9.30;4.90;;;;;;;;;;107144;1275;25366;-83
2023/06/24 10:33:23;;;;;;;10.00;5.30;;;;;;;;;;107147;1266;25574;-89
2023/06/24 10:36:30;;;;;;;7.30;4.50;;;;;;;;;;106624;1282;25441;-87
2023/06/24 10:38:59;;;;;;;9.00;5.30;;;;;;;;;;106585;1281;22641;-83
2023/06/24 10:41:28;;;;;;;11.20;5.50;;;;;;;;;;106595;1266;24448;-87
2023/06/24 10:43:59;;;;;;;9.10;5.30;;;;;;;;;;106611;1273;22570;-87
2023/06/24 10:46:36;;;;;;;10.10;6.30;;;;;;;;;;106565;1282;22542;-85
2023/06/24 10:49:03;;;;;;;12.10;5.90;;;;;;;;;;106533;1283;22530;-89
2023/06/24 10:51:35;;;;;;;8.90;5.50;;;;;;;;;;106590;1283;22533;-82
2023/06/24 10:54:05;;;;;;;10.10;6.00;;;;;;;;;;106554;1265;25436;-88
2023/06/24 10:56:34;;;;;;;9.00;5.00;;;;;;;;;;106554;1281;22529;-83
2023/06/24 10:59:27;;;;;;;8.20;4.80;;;;;;;;;;106514;1282;22595;-82
2023/06/24 11:02:02;;;;;;;9.10;5.20;;;;;;;;;;106611;1281;22530;-86
2023/06/24 11:04:29;;;;;;;8.20;5.00;;;;;;;;;;106616;1274;22784;-89
2023/06/24 11:07:05;;;;;;;8.10;4.90;;;;;;;;;;106629;1283;25357;-87
2023/06/24 11:09:51;;;;;;;10.60;6.20;;;;;;;;;;106652;1283;25236;-89
2023/06/24 11:12:18;;;;;;;11.30;5.90;;;;;;;;;;106538;1278;22518;-87
2023/06/24 11:14:47;;;;;;;9.10;5.20;;;;;;;;;;106915;1259;24190;-85
2023/06/24 11:17:40;;;;;;;10.00;5.00;;;;;;;;;;106989;1277;22674;-87
2023/06/24 11:20:13;;;;;;;8.60;5.40;;;;;;;;;;106998;1277;25529;-83
2023/06/24 11:23:02;;;;;;;9.80;5.30;;;;;;;;;;106929;1278;24363;-81
2023/06/24 11:25:29;;;;;;;9.10;5.50;;;;;;;;;;106938;1262;23288;-88
2023/06/24 11:28:04;;;;;;;8.60;4.90;;;;;;;;;;106898;1277;23854;-89
2023/06/24 11:30:41;;;;;;;8.30;5.30;;;;;;;;;;106871;1277;22519;-89
2023/06/24 11:33:18;;;;;;;;;;;;;;;;;;;;;
2023/06/24 11:35:52;;;;;;;10.40;5.10;;;;;;;;;;106921;1260;22549;-86
2023/06/24 11:38:37;;;;;;;8.10;5.10;;;;;;;;;;106902;1278;22529;-85
2023/06/24 11:41:13;;;;;;;9.10;4.80;;;;;;;;;;106978;1277;24250;-82
2023/06/24 11:43:46;;;;;;;9.00;5.20;;;;;;;;;;107044;1254;22526;-82
2023/06/24 11:46:33;;;;;;;10.60;5.70;;;;;;;;;;106883;1276;25422;-88
2023/06/24 11:49:36;;;;;;;;;;;;;;;;;;;;;
2023/06/24 11:52:51;;;;;;;;;;;;;;;;;;;;;
2023/06/24 11:55:54;;;;;;;9.40;5.20;;;;;;;;;;106280;1268;22594;-83
2023/06/24 11:58:49;;;;;;;9.00;5.10;;;;;;;;;;106293;1285;24343;-86
2023/06/24 12:01:49;;;;;;;9.80;5.20;;;;;;;;;;106328;1287;25328;-82
2023/06/24 12:04:19;;;;;;;8.70;5.30;;;;;;;;;;106084;1266;22537;-86
2023/06/24 12:06:45;;;;;;;9.40;5.80;;;;;;;;;;106110;1287;22540;-82
2023/06/24 12:09:29;;;;;;;8.90;5.10;;;;;;;;;;106077;1287;22567;-85
2023/06/24 12:11:56;;;;;;;8.80;5.40;;;;;;;;;;106174;1287;24333;-83
2023/06/24 12:14:26;;;;;;;8.50;5.40;;;;;;;;;;106095;1287;22611;-81
2023/06/24 12:16:55;;;;;;;9.20;5.20;;;;;;;;;;106325;1286;22549;-88
2023/06/24 12:19:33;;;;;;;9.20;5.60;;;;;;;;;;106419;1287;22524;-83
2023/06/24 12:22:21;;;;;;;8.50;5.50;;;;;;;;;;106308;1287;24401;-86
2023/06/24 12:24:56;;;;;;;8.80;5.60;;;;;;;;;;106298;1270;22558;-84
2023/06/24 12:27:28;;;;;;;8.70;5.00;;;;;;;;;;106342;1287;24224;-83
2023/06/24 12:30:21;;;;;;;9.40;5.50;;;;;;;;;;106444;1281;22569;-88
2023/06/24 12:32:51;;;;;;;10.40;5.60;;;;;;;;;;107113;1276;25272;-84
2023/06/24 12:35:29;;;;;;;9.30;5.40;;;;;;;;;;106976;1260;22561;-82
2023/06/24 12:37:56;;;;;;;7.80;5.00;;;;;;;;;;107007;1273;24441;-86
2023/06/24 12:40:25;;;;;;;10.90;5.00;;;;;;;;;;107096;1276;22527;-87
2023/06/24 12:42:52;;;;;;;9.50;5.20;;;;;;;;;;107160;1276;22536;-86
2023/06/24 12:45:22;;;;;;;9.40;5.90;;;;;;;;;;107134;1267;22495;-81
2023/06/24 12:48:00;;;;;;;8.50;4.90;;;;;;;;;;107211;1276;22660;-82
2023/06/24 12:50:33;;;;;;;8.20;5.40;;;;;;;;;;106995;1276;25229;-84
2023/06/24 12:53:02;;;;;;;8.20;4.90;;;;;;;;;;106992;1276;25223;-83
2023/06/24 12:55:50;;;;;;;9.00;5.30;;;;;;;;;;107121;1266;25275;-82
2023/06/24 12:58:22;;;;;;;8.80;5.70;;;;;;;;;;107034;1276;24217;-86
2023/06/24 13:00:51;;;;;;;9.10;5.50;;;;;;;;;;106954;1276;25370;-82
2023/06/24 13:03:18;;;;;;;9.00;5.80;;;;;;;;;;107029;1275;24205;-83
2023/06/24 13:05:48;;;;;;;10.30;5.60;;;;;;;;;;106963;1276;22535;-82
2023/06/24 13:08:15;;;;;;;11.00;5.90;;;;;;;;;;106940;1276;22550;-87
2023/06/24 13:10:42;;;;;;;10.50;5.80;;;;;;;;;;106962;1276;25409;-85
2023/06/24 13:13:08;;;;;;;9.00;5.60;;;;;;;;;;106997;1270;24225;-83
2023/06/24 13:15:44;;;;;;;8.60;5.90;;;;;;;;;;106946;1254;22594;-87
2023/06/24 13:18:19;;;;;;;9.50;5.70;;;;;;;;;;107080;1276;22517;-84
2023/06/24 13:20:49;;;;;;;9.00;6.00;;;;;;;;;;106951;1276;23936;-83
2023/06/24 13:23:16;;;;;;;9.10;5.90;;;;;;;;;;106944;1276;25227;-82
2023/06/24 13:25:43;;;;;;;9.00;6.00;;;;;;;;;;106982;1255;25281;-81
2023/06/24 13:28:10;;;;;;;8.40;5.60;;;;;;;;;;106975;1276;22544;-84
2023/06/24 13:30:36;;;;;;;9.30;6.00;;;;;;;;;;106960;1276;22534;-82
2023/06/24 13:33:03;;;;;;;9.50;6.00;;;;;;;;;;106931;1276;25226;-88
2023/06/24 13:35:30;;;;;;;10.60;6.00;;;;;;;;;;106971;1276;25296;-84
2023/06/24 13:38:17;;;;;;;11.10;6.90;;;;;;;;;;106991;1258;22774;-80
2023/06/24 13:40:44;;;;;;;17.70;14.10;;;;;;;;;;107103;1276;24238;-87
2023/06/24 13:43:11;;;;;;;13.20;10.20;;;;;;;;;;106982;1254;22550;-83
2023/06/24 13:45:41;;;;;;;40.30;35.90;;;;;;;;;;106985;1276;22622;-82
2023/06/24 13:48:10;;;;;;;20.50;18.10;;;;;;;;;;106951;1259;25281;-81
2023/06/24 13:50:42;;;;;;;11.50;8.80;;;;;;;;;;107124;1275;22555;-81
2023/06/24 13:53:09;;;;;;;10.10;7.40;;;;;;;;;;106993;1276;22527;-80
2023/06/24 13:55:36;;;;;;;9.90;6.80;;;;;;;;;;107106;1276;25338;-81
2023/06/24 13:58:05;;;;;;;8.90;6.50;;;;;;;;;;107139;1275;22511;-84
2023/06/24 14:00:32;;;;;;;9.50;5.90;;;;;;;;;;106863;1270;25428;-85
2023/06/24 14:02:59;;;;;;;9.20;6.10;;;;;;;;;;107034;1276;22533;-85
2023/06/24 14:05:26;;;;;;;10.10;6.90;;;;;;;;;;106800;1276;22523;-85
2023/06/24 14:07:53;;;;;;;10.40;6.00;;;;;;;;;;106846;1270;22785;-87
2023/06/24 14:10:23;;;;;;;9.90;6.20;;;;;;;;;;106884;1276;22770;-85
2023/06/24 14:12:58;;;;;;;10.20;7.70;;;;;;;;;;107096;1276;24537;-83
2023/06/24 14:15:35;;;;;;;9.80;7.00;;;;;;;;;;107100;1252;22525;-90
2023/06/24 14:18:02;;;;;;;9.30;6.30;;;;;;;;;;106691;1261;22646;-89
2023/06/24 14:20:30;;;;;;;9.30;6.30;;;;;;;;;;106886;1276;22533;-82
2023/06/24 14:22:57;;;;;;;8.40;6.00;;;;;;;;;;106877;1269;22539;-83
2023/06/24 14:25:24;;;;;;;8.30;5.40;;;;;;;;;;106878;1270;22611;-81
2023/06/24 14:28:09;;;;;;;8.80;5.30;;;;;;;;;;107035;1258;24218;-82
2023/06/24 14:30:36;;;;;;;10.90;5.80;;;;;;;;;;106765;1270;24262;-90
2023/06/24 14:33:03;;;;;;;9.30;6.40;;;;;;;;;;106922;1269;22579;-85
2023/06/24 14:35:51;;;;;;;11.70;6.70;;;;;;;;;;106929;1270;22545;-82
2023/06/24 14:38:18;;;;;;;10.90;8.30;;;;;;;;;;106893;1257;22663;-81
2023/06/24 14:40:45;;;;;;;10.80;7.90;;;;;;;;;;106911;1276;24253;-84
2023/06/24 14:43:32;;;;;;;11.00;7.60;;;;;;;;;;107045;1276;24228;-84
2023/06/24 14:46:02;;;;;;;20.90;15.60;;;;;;;;;;107081;1276;24209;-84
2023/06/24 14:48:32;;;;;;;13.40;9.50;;;;;;;;;;106889;1276;23270;-90
2023/06/24 14:50:59;;;;;;;13.30;10.10;;;;;;;;;;106958;1276;25460;-85
2023/06/24 14:54:18;;;;;;;18.60;14.00;;;;;;;;;;107077;1276;22528;-86
2023/06/24 14:56:21;;;;;;;19.40;14.90;;;;;;;;;;106917;1276;23159;-84
2023/06/24 14:58:47;;;;;;;15.60;8.30;;;;;;;;;;106898;1261;24186;-83
2023/06/24 15:01:14;;;;;;;9.90;6.60;;;;;;;;;;106978;1276;22556;-81
2023/06/24 15:03:41;;;;;;;9.50;5.80;;;;;;;;;;106917;1273;23121;-82
2023/06/24 15:06:08;;;;;;;8.60;5.70;;;;;;;;;;106931;1276;22524;-82
2023/06/24 15:08:35;;;;;;;8.90;5.60;;;;;;;;;;107107;1256;22783;-86
2023/06/24 15:11:50;;;;;;;11.50;7.70;;;;;;;;;;106965;1275;25384;-86
2023/06/24 15:14:04;;;;;;;22.20;15.20;;;;;;;;;;107096;1276;22742;-81
2023/06/24 15:16:50;;;;;;;13.20;9.80;;;;;;;;;;107076;1275;24235;-87
2023/06/24 15:19:17;;;;;;;9.60;6.50;;;;;;;;;;106959;1261;22709;-82
2023/06/24 15:21:44;;;;;;;8.70;5.30;;;;;;;;;;107100;1275;22555;-88
2023/06/24 15:24:11;;;;;;;13.50;10.00;;;;;;;;;;106908;1276;25014;-87
2023/06/24 15:26:37;;;;;;;12.00;8.90;;;;;;;;;;106958;1276;23916;-79
2023/06/24 15:29:07;;;;;;;14.80;11.70;;;;;;;;;;107062;1260;22521;-84
2023/06/24 15:31:34;;;;;;;12.40;10.20;;;;;;;;;;106814;1269;22565;-87
2023/06/24 15:34:01;;;;;;;13.30;6.80;;;;;;;;;;107072;1269;24222;-82
2023/06/24 15:36:29;;;;;;;35.10;27.10;;;;;;;;;;107038;1269;22568;-81
2023/06/24 15:38:57;;;;;;;13.70;9.20;;;;;;;;;;106854;1265;22536;-83
2023/06/24 15:41:27;;;;;;;13.80;10.40;;;;;;;;;;107053;1276;22483;-81
2023/06/24 15:43:54;;;;;;;10.50;6.80;;;;;;;;;;107079;1276;24825;-80
2023/06/24 15:46:24;;;;;;;10.80;7.50;;;;;;;;;;106985;1270;25239;-79
2023/06/24 15:48:53;;;;;;;11.60;7.00;;;;;;;;;;106963;1257;25429;-85
2023/06/24 15:51:20;;;;;;;13.70;9.40;;;;;;;;;;106959;1276;22540;-80
2023/06/24 15:53:47;;;;;;;9.30;6.90;;;;;;;;;;107094;1276;22525;-85
2023/06/24 15:56:14;;;;;;;14.30;9.00;;;;;;;;;;106896;1275;22523;-86
2023/06/24 15:58:44;;;;;;;15.00;11.60;;;;;;;;;;107001;1252;25227;-83
2023/06/24 16:01:11;;;;;;;14.50;11.20;;;;;;;;;;106968;1269;22926;-83
2023/06/24 16:03:38;;;;;;;12.70;9.10;;;;;;;;;;106928;1273;22527;-82
2023/06/24 16:06:08;;;;;;;12.30;8.00;;;;;;;;;;106924;1276;25230;-80
2023/06/24 16:08:34;;;;;;;11.60;6.60;;;;;;;;;;106901;1275;24251;-83
2023/06/24 16:11:01;;;;;;;9.30;6.00;;;;;;;;;;106902;1259;24263;-83
2023/06/24 16:13:29;;;;;;;9.20;6.40;;;;;;;;;;106953;1276;24353;-79
2023/06/24 16:15:59;;;;;;;12.10;7.00;;;;;;;;;;107043;1276;25236;-82
2023/06/24 16:18:26;;;;;;;10.60;6.70;;;;;;;;;;106940;1273;24263;-86
2023/06/24 16:20:53;;;;;;;8.90;6.50;;;;;;;;;;107053;1257;22532;-82
2023/06/24 16:23:20;;;;;;;9.20;6.00;;;;;;;;;;106904;1275;22534;-82
2023/06/24 16:25:48;;;;;;;10.20;6.90;;;;;;;;;;106958;1275;22988;-80
2023/06/24 16:28:15;;;;;;;9.70;6.60;;;;;;;;;;107080;1275;22999;-86
2023/06/24 16:30:44;;;;;;;13.90;10.70;;;;;;;;;;107143;1275;22494;-84
2023/06/24 16:33:11;;;;;;;10.70;7.00;;;;;;;;;;107035;1275;23395;-80
2023/06/24 16:35:41;;;;;;;11.70;6.70;;;;;;;;;;107072;1275;22611;-81
2023/06/24 16:38:07;;;;;;;10.40;7.30;;;;;;;;;;107064;1275;23909;-82
2023/06/24 16:40:37;;;;;;;13.50;7.10;;;;;;;;;;106935;1259;23892;-83
2023/06/24 16:43:04;;;;;;;10.60;6.60;;;;;;;;;;107064;1275;22526;-84
2023/06/24 16:45:31;;;;;;;11.10;7.60;;;;;;;;;;107072;1275;22646;-85